Time;durP1;ratioP1;P1;durP2;ratioP2;P2;SDS_P1;SDS_P2;PMS_P1;PMS_P2;Temp;Humidity;BMP_temperature;BMP_pressure;BME280_temperature;BME280_humidity;BME280_pressure;Samples;Min_cycle;Max_cycle;Signal;HPM_P1;HPM_P2
2023/01/20 00:01:37;;;;;;;11.77;2.60;;;20.20;99.90;;;;;;4972143;28;20183;-70
2023/01/20 00:04:05;;;;;;;7.87;1.63;;;20.20;99.90;;;;;;4972466;28;20167;-70
2023/01/20 00:06:32;;;;;;;9.97;2.00;;;20.10;99.90;;;;;;4972488;28;20222;-69
2023/01/20 00:09:01;;;;;;;8.83;1.87;;;20.00;99.90;;;;;;4972135;28;20203;-70
2023/01/20 00:11:29;;;;;;;8.33;1.70;;;20.10;99.90;;;;;;4972167;28;20211;-70
2023/01/20 00:13:59;;;;;;;10.27;1.60;;;20.20;99.90;;;;;;4973958;28;20221;-75
2023/01/20 00:16:27;;;;;;;13.77;2.17;;;20.30;99.90;;;;;;4956799;28;20211;-76
2023/01/20 00:18:55;;;;;;;13.43;2.13;;;20.30;99.90;;;;;;4974946;28;20183;-69
2023/01/20 00:21:23;;;;;;;8.90;1.50;;;20.50;99.90;;;;;;4975437;28;20625;-70
2023/01/20 00:23:50;;;;;;;8.10;1.67;;;20.90;99.90;;;;;;4975060;28;20191;-70
2023/01/20 00:26:22;;;;;;;6.10;1.67;;;21.10;99.90;;;;;;4975481;28;20645;-70
2023/01/20 00:28:52;;;;;;;10.03;2.07;;;21.30;99.90;;;;;;4975670;28;20186;-69
2023/01/20 00:31:22;;;;;;;6.70;1.50;;;21.40;99.90;;;;;;4974718;28;20230;-70
2023/01/20 00:33:51;;;;;;;8.57;1.77;;;21.40;99.90;;;;;;4975304;28;20249;-69
2023/01/20 00:36:19;;;;;;;5.07;1.70;;;21.40;99.90;;;;;;4975429;28;20194;-72
2023/01/20 00:38:48;;;;;;;11.13;1.77;;;21.30;99.90;;;;;;4975126;28;20183;-69
2023/01/20 00:41:16;;;;;;;12.93;1.60;;;21.20;99.90;;;;;;4975363;28;20202;-70
2023/01/20 00:43:43;;;;;;;6.43;1.43;;;21.40;99.90;;;;;;4963827;28;20188;-70
2023/01/20 00:46:12;;;;;;;8.90;1.40;;;21.60;99.90;;;;;;4974801;28;20214;-75
2023/01/20 00:48:39;;;;;;;6.10;1.30;;;21.70;99.90;;;;;;4975562;28;20175;-73
2023/01/20 00:51:08;;;;;;;11.43;1.87;;;22.00;99.90;;;;;;4975137;28;20259;-69
2023/01/20 00:53:35;;;;;;;11.67;2.03;;;22.10;99.90;;;;;;4974642;28;20202;-73
2023/01/20 00:56:03;;;;;;;13.07;2.10;;;22.10;99.90;;;;;;4975387;28;20649;-69
2023/01/20 00:58:31;;;;;;;9.03;1.83;;;22.20;99.90;;;;;;4975307;28;20637;-75
2023/01/20 01:00:59;;;;;;;7.33;2.13;;;22.30;99.90;;;;;;4974737;28;20644;-72
2023/01/20 01:03:27;;;;;;;10.87;1.70;;;22.50;99.90;;;;;;4975249;28;20190;-70
2023/01/20 01:06:04;;;;;;;8.23;1.73;;;22.60;99.90;;;;;;4975169;28;20171;-70
2023/01/20 01:08:32;;;;;;;12.10;1.80;;;22.70;99.90;;;;;;4974588;28;20268;-75
2023/01/20 01:10:59;;;;;;;9.00;1.57;;;22.60;99.90;;;;;;4974790;28;20318;-74
2023/01/20 01:13:27;;;;;;;7.63;2.23;;;22.40;99.90;;;;;;4974739;28;20178;-70
2023/01/20 01:15:54;;;;;;;7.53;1.80;;;22.40;99.90;;;;;;4957184;28;20653;-70
2023/01/20 01:18:22;;;;;;;10.10;1.93;;;22.40;99.90;;;;;;4974649;28;20443;-71
2023/01/20 01:20:49;;;;;;;9.87;1.83;;;22.40;99.90;;;;;;4974760;28;20229;-75
2023/01/20 01:23:16;;;;;;;9.83;1.80;;;22.40;99.90;;;;;;4974373;28;20237;-77
2023/01/20 01:25:44;;;;;;;6.73;1.60;;;22.60;99.90;;;;;;4973340;28;20236;-70
2023/01/20 01:28:11;;;;;;;6.90;1.30;;;22.70;99.90;;;;;;4974362;28;20190;-73
2023/01/20 01:30:39;;;;;;;6.67;1.50;;;22.80;99.90;;;;;;4974089;28;20206;-69
2023/01/20 01:33:06;;;;;;;10.10;2.43;;;23.00;99.90;;;;;;4974361;28;20187;-70
2023/01/20 01:35:33;;;;;;;11.07;1.63;;;23.10;99.90;;;;;;4974286;28;20211;-70
2023/01/20 01:38:01;;;;;;;6.40;1.47;;;23.30;99.90;;;;;;4972591;28;20194;-71
2023/01/20 01:40:28;;;;;;;8.90;1.50;;;23.60;99.90;;;;;;4973922;28;20664;-70
2023/01/20 01:42:56;;;;;;;6.67;1.60;;;23.80;99.90;;;;;;4974375;28;20202;-70
2023/01/20 01:45:26;;;;;;;7.17;1.70;;;24.00;99.90;;;;;;4973963;28;20182;-70
2023/01/20 01:48:05;;;;;;;4.30;1.13;;;24.00;99.90;;;;;;4973859;28;20190;-69
2023/01/20 01:50:43;;;;;;;9.27;1.50;;;23.60;99.90;;;;;;4973062;28;20238;-78
2023/01/20 01:53:11;;;;;;;10.93;1.80;;;23.00;99.90;;;;;;4973315;28;20613;-69
2023/01/20 01:55:45;;;;;;;8.37;1.93;;;22.80;99.90;;;;;;4973557;28;20371;-71
2023/01/20 01:58:16;;;;;;;8.20;1.40;;;22.80;99.90;;;;;;4973882;28;20214;-78
2023/01/20 02:00:44;;;;;;;9.07;1.50;;;22.80;99.90;;;;;;4973434;28;20186;-71
2023/01/20 02:03:12;;;;;;;6.50;1.40;;;22.60;99.90;;;;;;4973837;28;20204;-68
2023/01/20 02:05:41;;;;;;;8.57;1.67;;;22.20;99.90;;;;;;4973766;28;20261;-68
2023/01/20 02:08:09;;;;;;;3.53;1.00;;;22.10;99.90;;;;;;4973153;28;20197;-69
2023/01/20 02:10:36;;;;;;;4.93;1.00;;;21.90;99.90;;;;;;4977210;28;20307;-74
2023/01/20 02:13:05;;;;;;;6.83;1.67;;;22.00;99.90;;;;;;4976502;28;20584;-70
2023/01/20 02:15:44;;;;;;;7.30;1.57;;;21.90;99.90;;;;;;4973028;28;20525;-72
2023/01/20 02:18:35;;;;;;;7.97;1.67;;;21.90;99.90;;;;;;4973417;28;20266;-71
2023/01/20 02:21:17;;;;;;;6.30;1.40;;;21.80;99.90;;;;;;4973382;28;20697;-70
2023/01/20 02:24:02;;;;;;;9.47;1.67;;;21.70;99.90;;;;;;4971565;28;20587;-69
2023/01/20 02:27:10;;;;;;;18.10;1.77;;;21.60;99.90;;;;;;4972765;28;20189;-70
2023/01/20 02:29:37;;;;;;;6.33;1.40;;;21.50;99.90;;;;;;4972468;28;20253;-74
2023/01/20 02:32:12;;;;;;;6.63;1.63;;;21.40;99.90;;;;;;4979319;28;20252;-74
2023/01/20 02:35:07;;;;;;;8.60;1.57;;;21.40;99.90;;;;;;4992700;28;20258;-72
2023/01/20 02:37:50;;;;;;;10.70;1.73;;;21.50;99.90;;;;;;4974357;28;20699;-72
2023/01/20 02:40:36;;;;;;;6.57;1.47;;;21.40;99.90;;;;;;4973373;28;20238;-69
2023/01/20 02:43:41;;;;;;;7.93;1.30;;;21.50;99.90;;;;;;4973040;28;20238;-70
2023/01/20 02:46:25;;;;;;;12.47;1.67;;;21.30;99.90;;;;;;4962482;28;20683;-70
2023/01/20 02:49:05;;;;;;;6.20;1.60;;;21.20;99.90;;;;;;4983697;28;20336;-73
2023/01/20 02:51:40;;;;;;;9.83;2.40;;;21.10;99.90;;;;;;4992099;28;20241;-70
2023/01/20 02:54:10;;;;;;;6.17;1.30;;;21.00;99.90;;;;;;4992390;28;20200;-69
2023/01/20 02:56:39;;;;;;;6.83;1.50;;;21.00;99.90;;;;;;4992479;28;20268;-69
2023/01/20 02:59:14;;;;;;;7.63;1.37;;;21.00;99.90;;;;;;4991905;28;20183;-69
2023/01/20 03:01:47;;;;;;;6.07;1.60;;;21.10;99.90;;;;;;4982490;28;20187;-70
2023/01/20 03:04:18;;;;;;;6.07;1.37;;;21.20;99.90;;;;;;4972608;28;20222;-73
2023/01/20 03:06:53;;;;;;;8.97;1.67;;;21.20;99.90;;;;;;4972275;28;20184;-69
2023/01/20 03:09:29;;;;;;;6.97;1.50;;;21.40;99.90;;;;;;4972639;28;20182;-69
2023/01/20 03:12:03;;;;;;;6.63;1.53;;;21.40;99.90;;;;;;4972594;28;20215;-70
2023/01/20 03:14:31;;;;;;;11.97;1.83;;;21.50;99.90;;;;;;4979335;28;20226;-69
2023/01/20 03:16:58;;;;;;;7.30;1.87;;;21.60;99.90;;;;;;4972177;28;20250;-69
2023/01/20 03:19:27;;;;;;;13.83;1.77;;;21.60;99.90;;;;;;4972458;28;20179;-70
2023/01/20 03:21:54;;;;;;;9.50;1.60;;;21.60;99.90;;;;;;4953900;28;20195;-71
2023/01/20 03:24:23;;;;;;;8.93;1.83;;;21.50;99.90;;;;;;4971979;28;20201;-70
2023/01/20 03:26:50;;;;;;;8.27;1.50;;;21.30;99.90;;;;;;4972603;28;20551;-76
2023/01/20 03:29:18;;;;;;;8.70;1.93;;;21.30;99.90;;;;;;4961034;28;20190;-69
2023/01/20 03:31:50;;;;;;;15.73;2.00;;;21.20;99.90;;;;;;4988655;28;20234;-68
2023/01/20 03:34:21;;;;;;;12.07;1.83;;;21.20;99.90;;;;;;4972788;28;20266;-71
2023/01/20 03:36:50;;;;;;;7.00;1.40;;;21.40;99.90;;;;;;4971824;28;20193;-68
2023/01/20 03:39:18;;;;;;;8.27;1.47;;;21.50;99.90;;;;;;4972084;28;20194;-69
2023/01/20 03:42:07;;;;;;;7.10;1.33;;;21.60;99.90;;;;;;4972013;28;20670;-69
2023/01/20 03:45:00;;;;;;;9.93;1.97;;;21.80;99.90;;;;;;4971908;28;20185;-72
2023/01/20 03:47:35;;;;;;;7.07;1.80;;;22.00;99.90;;;;;;4972381;28;20231;-70
2023/01/20 03:50:20;;;;;;;5.47;1.40;;;22.30;99.90;;;;;;4976149;28;20183;-68
2023/01/20 03:53:34;;;;;;;10.30;1.50;;;22.50;99.90;;;;;;4975337;28;20561;-72
2023/01/20 03:56:05;;;;;;;4.47;1.10;;;22.50;99.90;;;;;;4934897;29;20200;-70
2023/01/20 03:58:36;;;;;;;7.07;1.50;;;22.50;99.90;;;;;;4934778;29;20192;-69
2023/01/20 04:01:07;;;;;;;6.33;1.80;;;22.60;99.90;;;;;;4946679;28;20280;-70
2023/01/20 04:03:39;;;;;;;7.20;1.70;;;22.60;99.90;;;;;;4975137;28;20629;-70
2023/01/20 04:06:09;;;;;;;10.07;1.33;;;22.80;99.90;;;;;;4975194;28;20276;-69
2023/01/20 04:08:59;;;;;;;6.20;1.30;;;22.70;99.90;;;;;;4974538;28;20262;-71
2023/01/20 04:11:27;;;;;;;7.10;1.43;;;22.90;99.90;;;;;;4974144;28;20233;-69
2023/01/20 04:13:55;;;;;;;6.03;1.10;;;23.00;99.90;;;;;;4976626;28;20234;-70
2023/01/20 04:16:24;;;;;;;5.77;1.23;;;23.10;99.90;;;;;;4975435;28;20180;-70
2023/01/20 04:18:52;;;;;;;4.03;1.10;;;23.20;99.90;;;;;;4977741;28;20223;-72
2023/01/20 04:21:28;;;;;;;8.67;1.80;;;23.20;99.90;;;;;;4975411;28;20206;-70
2023/01/20 04:24:37;;;;;;;8.80;1.30;;;23.30;99.90;;;;;;4963932;28;20207;-70
2023/01/20 04:27:04;;;;;;;8.20;1.37;;;23.30;99.90;;;;;;4975419;28;20190;-73
2023/01/20 04:29:31;;;;;;;5.90;0.97;;;23.20;99.90;;;;;;4975193;28;20205;-69
2023/01/20 04:32:00;;;;;;;7.70;1.20;;;23.20;99.90;;;;;;4975233;28;20237;-69
2023/01/20 04:34:28;;;;;;;6.40;1.37;;;23.10;99.90;;;;;;4975772;28;20564;-69
2023/01/20 04:36:56;;;;;;;5.43;1.30;;;23.00;99.90;;;;;;4974851;28;20191;-70
2023/01/20 04:39:23;;;;;;;5.77;1.30;;;23.10;99.90;;;;;;4975220;28;20183;-70
2023/01/20 04:41:51;;;;;;;2.97;1.43;;;22.90;99.90;;;;;;4975042;28;20205;-69
2023/01/20 04:44:18;;;;;;;8.47;1.40;;;22.50;99.90;;;;;;4975006;28;20237;-70
2023/01/20 04:46:46;;;;;;;9.03;1.50;;;22.10;99.90;;;;;;4975316;28;20190;-69
2023/01/20 04:49:14;;;;;;;9.37;1.53;;;21.90;99.90;;;;;;4975252;28;20187;-75
2023/01/20 04:51:42;;;;;;;7.97;1.47;;;21.70;99.90;;;;;;4974480;28;20218;-70
2023/01/20 04:54:10;;;;;;;7.63;1.40;;;21.50;99.90;;;;;;4974938;28;20230;-70
2023/01/20 04:56:38;;;;;;;8.57;1.47;;;21.40;99.90;;;;;;4974961;28;20187;-70
2023/01/20 04:59:05;;;;;;;9.23;2.20;;;21.30;99.90;;;;;;4974198;28;20545;-71
2023/01/20 05:01:32;;;;;;;7.07;1.43;;;21.10;99.90;;;;;;4955809;29;20597;-69
2023/01/20 05:04:00;;;;;;;7.50;1.77;;;21.00;99.90;;;;;;4955658;29;20184;-70
2023/01/20 05:06:28;;;;;;;6.37;1.37;;;21.00;99.90;;;;;;4967820;28;20191;-73
2023/01/20 05:08:55;;;;;;;7.33;1.17;;;20.90;99.90;;;;;;4974236;28;20243;-70
2023/01/20 05:11:22;;;;;;;10.07;1.50;;;20.90;99.90;;;;;;4974744;28;20230;-69
2023/01/20 05:13:50;;;;;;;7.73;1.30;;;20.90;99.90;;;;;;4974199;28;20180;-69
2023/01/20 05:16:23;;;;;;;9.90;1.53;;;20.80;99.90;;;;;;4974323;28;20183;-69
2023/01/20 05:18:51;;;;;;;6.43;1.20;;;20.80;99.90;;;;;;4974588;28;20597;-69
2023/01/20 05:21:19;;;;;;;6.33;1.60;;;20.80;99.90;;;;;;4974055;28;20189;-70
2023/01/20 05:23:46;;;;;;;9.23;1.43;;;20.70;99.90;;;;;;4974451;28;20192;-70
2023/01/20 05:26:13;;;;;;;5.47;1.77;;;20.70;99.90;;;;;;4957191;28;20615;-71
2023/01/20 05:28:44;;;;;;;8.53;1.80;;;20.70;99.90;;;;;;4982681;28;20269;-69
2023/01/20 05:31:11;;;;;;;6.43;1.43;;;20.80;99.90;;;;;;4993908;28;20198;-70
2023/01/20 05:33:39;;;;;;;5.83;1.60;;;20.80;99.90;;;;;;4983151;28;20267;-69
2023/01/20 05:36:07;;;;;;;5.10;1.17;;;20.90;99.90;;;;;;4978142;28;20179;-71
2023/01/20 05:38:35;;;;;;;4.73;1.03;;;20.90;99.90;;;;;;4993739;28;20606;-70
2023/01/20 05:41:07;;;;;;;5.40;1.13;;;20.80;99.90;;;;;;4993709;28;20235;-70
2023/01/20 05:43:34;;;;;;;9.20;1.50;;;20.90;99.90;;;;;;4993467;28;20559;-70
2023/01/20 05:46:02;;;;;;;5.87;1.27;;;21.00;99.90;;;;;;4993621;28;20265;-72
2023/01/20 05:48:30;;;;;;;6.23;1.30;;;21.10;99.90;;;;;;4973742;28;20263;-70
2023/01/20 05:50:57;;;;;;;6.20;1.40;;;21.20;99.90;;;;;;4955813;28;20222;-70
2023/01/20 05:53:25;;;;;;;4.67;1.40;;;21.30;99.90;;;;;;4973776;28;20221;-70
2023/01/20 05:56:01;;;;;;;6.23;1.10;;;21.40;99.90;;;;;;4956514;28;20230;-69
2023/01/20 05:58:29;;;;;;;4.57;0.90;;;21.50;99.90;;;;;;4973296;28;20179;-70
2023/01/20 06:01:05;;;;;;;4.53;0.97;;;21.60;99.90;;;;;;4973898;28;20179;-70
2023/01/20 06:03:33;;;;;;;6.50;1.30;;;21.70;99.90;;;;;;4973810;28;20183;-69
2023/01/20 06:06:02;;;;;;;5.07;1.00;;;21.70;99.90;;;;;;4973341;28;20643;-70
2023/01/20 06:08:30;;;;;;;5.13;0.93;;;21.80;99.90;;;;;;4973357;28;20179;-69
2023/01/20 06:10:58;;;;;;;5.87;1.30;;;21.80;99.90;;;;;;4973055;28;20195;-69
2023/01/20 06:13:25;;;;;;;6.40;1.20;;;21.70;99.90;;;;;;4971933;28;20224;-71
2023/01/20 06:15:54;;;;;;;7.10;1.10;;;21.60;99.90;;;;;;4979932;28;20187;-70
2023/01/20 06:18:23;;;;;;;5.87;1.27;;;21.60;99.90;;;;;;4973018;28;20219;-73
2023/01/20 06:20:50;;;;;;;7.27;1.30;;;21.50;99.90;;;;;;4973086;28;20219;-70
2023/01/20 06:23:18;;;;;;;10.60;1.60;;;21.50;99.90;;;;;;4973529;28;20190;-70
2023/01/20 06:25:45;;;;;;;7.97;1.57;;;21.40;99.90;;;;;;4973400;28;20258;-71
2023/01/20 06:28:13;;;;;;;5.00;1.50;;;21.30;99.90;;;;;;4955657;28;20649;-70
2023/01/20 06:30:41;;;;;;;5.13;1.40;;;21.10;99.90;;;;;;4973175;28;20207;-76
2023/01/20 06:33:09;;;;;;;9.03;2.20;;;21.10;99.90;;;;;;4973246;28;20203;-70
2023/01/20 06:35:37;;;;;;;10.27;1.37;;;21.00;99.90;;;;;;4972723;28;20347;-70
2023/01/20 06:38:05;;;;;;;7.63;1.73;;;20.90;99.90;;;;;;4973138;28;20192;-69
2023/01/20 06:40:32;;;;;;;5.13;1.83;;;20.90;99.90;;;;;;4973124;28;20185;-69
2023/01/20 06:43:00;;;;;;;6.37;1.33;;;20.80;99.90;;;;;;4964851;28;20258;-70
2023/01/20 06:45:28;;;;;;;5.80;1.20;;;20.80;99.90;;;;;;4983568;28;20247;-70
2023/01/20 06:47:55;;;;;;;6.10;1.47;;;20.80;99.90;;;;;;4987425;28;20550;-71
2023/01/20 06:50:23;;;;;;;5.40;1.40;;;20.90;99.90;;;;;;4972504;28;20652;-69
2023/01/20 06:52:50;;;;;;;5.50;1.30;;;20.90;99.90;;;;;;4955607;28;20667;-69
2023/01/20 06:55:17;;;;;;;10.53;1.80;;;21.10;99.90;;;;;;4972794;28;20190;-69
2023/01/20 06:57:45;;;;;;;11.37;1.83;;;21.10;99.90;;;;;;4972346;28;20187;-69
2023/01/20 07:00:13;;;;;;;7.77;1.87;;;21.20;99.90;;;;;;4972944;28;20218;-74
2023/01/20 07:02:40;;;;;;;4.53;1.40;;;21.20;99.90;;;;;;4973138;28;20183;-74
2023/01/20 07:05:09;;;;;;;9.77;1.93;;;21.20;99.90;;;;;;4972465;28;20173;-69
2023/01/20 07:07:37;;;;;;;9.90;2.10;;;21.20;99.90;;;;;;4972618;28;20271;-69
2023/01/20 07:10:04;;;;;;;7.03;1.63;;;21.30;99.90;;;;;;4972861;28;20184;-70
2023/01/20 07:12:32;;;;;;;7.07;1.37;;;21.40;99.90;;;;;;4972577;28;20277;-69
2023/01/20 07:14:59;;;;;;;6.60;1.60;;;21.60;99.90;;;;;;4972533;28;20182;-71
2023/01/20 07:17:26;;;;;;;5.60;1.13;;;21.80;99.90;;;;;;4972517;28;20198;-70
2023/01/20 07:19:54;;;;;;;6.97;1.20;;;21.80;99.90;;;;;;4972345;28;20317;-69
2023/01/20 07:22:21;;;;;;;3.27;1.00;;;21.70;99.90;;;;;;4974046;28;20543;-69
2023/01/20 07:24:48;;;;;;;7.80;1.33;;;21.70;99.90;;;;;;4976836;28;20633;-69
2023/01/20 07:27:16;;;;;;;2.20;0.87;;;21.60;99.90;;;;;;4975830;28;20183;-69
2023/01/20 07:29:43;;;;;;;4.63;1.23;;;21.60;99.90;;;;;;4976741;28;20180;-69
2023/01/20 07:32:11;;;;;;;6.30;1.30;;;21.50;99.90;;;;;;4976331;28;20253;-69
2023/01/20 07:34:38;;;;;;;4.00;1.30;;;21.30;99.90;;;;;;4975642;28;21028;-70
2023/01/20 07:37:05;;;;;;;5.30;1.30;;;21.20;99.90;;;;;;4976004;28;20272;-69
2023/01/20 07:39:35;;;;;;;5.77;1.43;;;21.10;99.90;;;;;;4976463;28;20656;-69
2023/01/20 07:42:02;;;;;;;10.17;1.20;;;21.10;99.90;;;;;;4975696;28;20196;-69
2023/01/20 07:44:31;;;;;;;8.37;1.50;;;21.10;99.90;;;;;;4976466;28;20619;-71
2023/01/20 07:46:58;;;;;;;5.50;1.20;;;21.00;99.90;;;;;;4982850;28;20182;-71
2023/01/20 07:49:26;;;;;;;7.03;1.83;;;21.00;99.90;;;;;;4983517;28;20194;-70
2023/01/20 07:51:53;;;;;;;6.67;1.53;;;20.90;99.90;;;;;;4976043;28;20221;-69
2023/01/20 07:54:21;;;;;;;6.03;1.33;;;20.80;99.90;;;;;;4958719;28;20649;-70
2023/01/20 07:56:48;;;;;;;7.70;1.30;;;20.80;99.90;;;;;;4975132;28;20181;-69
2023/01/20 07:59:15;;;;;;;6.30;1.10;;;20.70;99.90;;;;;;4976183;28;20179;-69
2023/01/20 08:01:43;;;;;;;8.67;1.30;;;20.50;99.90;;;;;;4958602;28;20587;-69
2023/01/20 08:04:11;;;;;;;5.33;1.63;;;20.50;99.90;;;;;;4975287;28;20186;-68
2023/01/20 08:06:39;;;;;;;7.43;1.53;;;20.40;99.90;;;;;;4975899;28;20318;-68
2023/01/20 08:09:10;;;;;;;8.77;1.40;;;20.40;99.90;;;;;;4975738;28;20189;-71
2023/01/20 08:11:38;;;;;;;1.50;0.90;;;20.20;99.90;;;;;;4975364;28;20572;-69
2023/01/20 08:14:06;;;;;;;9.37;1.10;;;20.20;99.90;;;;;;4975381;28;20185;-68
2023/01/20 08:16:33;;;;;;;7.93;1.10;;;20.20;99.90;;;;;;4975334;28;20190;-69
2023/01/20 08:19:00;;;;;;;4.53;1.00;;;20.10;99.90;;;;;;4975210;28;20231;-70
2023/01/20 08:21:32;;;;;;;4.47;0.87;;;20.10;99.90;;;;;;4985808;28;20192;-69
2023/01/20 08:24:03;;;;;;;6.00;1.20;;;20.10;99.90;;;;;;4966520;28;20187;-73
2023/01/20 08:26:31;;;;;;;5.97;1.20;;;20.10;99.90;;;;;;4975872;28;20190;-69
2023/01/20 08:29:07;;;;;;;4.63;1.20;;;20.20;99.90;;;;;;4976142;28;20629;-69
2023/01/20 08:31:35;;;;;;;5.60;1.00;;;20.20;99.90;;;;;;4976458;28;20218;-70
2023/01/20 08:34:03;;;;;;;6.37;1.40;;;20.20;99.90;;;;;;4975814;28;20179;-73
2023/01/20 08:36:34;;;;;;;6.73;1.30;;;20.20;99.90;;;;;;4975966;28;20241;-68
2023/01/20 08:39:04;;;;;;;3.63;1.27;;;20.20;99.90;;;;;;4976494;28;20209;-69
2023/01/20 08:41:35;;;;;;;3.20;0.93;;;20.20;99.90;;;;;;4976715;28;20175;-75
2023/01/20 08:44:05;;;;;;;4.57;0.97;;;20.10;99.90;;;;;;4976447;28;20179;-70
2023/01/20 08:46:33;;;;;;;2.83;0.83;;;20.20;99.90;;;;;;4975960;28;20211;-68
2023/01/20 08:49:01;;;;;;;4.67;0.73;;;20.10;99.90;;;;;;4976163;28;20182;-70
2023/01/20 08:51:32;;;;;;;4.40;1.20;;;20.10;99.90;;;;;;4959070;28;20318;-67
2023/01/20 08:54:00;;;;;;;6.30;1.07;;;20.10;99.90;;;;;;4976262;28;20590;-70
2023/01/20 08:56:28;;;;;;;4.53;0.90;;;20.00;99.90;;;;;;4976306;28;20587;-74
2023/01/20 08:58:56;;;;;;;5.80;1.10;;;20.00;99.90;;;;;;4976295;28;20262;-74
2023/01/20 09:01:27;;;;;;;4.13;1.40;;;20.00;99.90;;;;;;4976234;28;20185;-74
2023/01/20 09:03:55;;;;;;;7.43;1.60;;;20.00;99.90;;;;;;4976077;28;20640;-69
2023/01/20 09:06:23;;;;;;;6.57;1.37;;;20.00;99.90;;;;;;4976230;28;20187;-69
2023/01/20 09:08:52;;;;;;;8.63;1.43;;;19.90;99.90;;;;;;4976010;28;20546;-75
2023/01/20 09:11:23;;;;;;;7.80;1.63;;;19.80;99.90;;;;;;4975914;28;20206;-75
2023/01/20 09:13:51;;;;;;;5.53;1.30;;;19.80;99.90;;;;;;4975809;28;20185;-72
2023/01/20 09:16:19;;;;;;;7.60;1.37;;;19.70;99.90;;;;;;4975801;28;20269;-74
2023/01/20 09:18:46;;;;;;;8.87;1.80;;;19.70;99.90;;;;;;4975590;28;20244;-74
2023/01/20 09:21:14;;;;;;;6.37;1.77;;;19.60;99.90;;;;;;4976094;28;20369;-71
2023/01/20 09:23:42;;;;;;;4.17;1.30;;;19.60;99.90;;;;;;4975855;28;20300;-70
2023/01/20 09:26:10;;;;;;;6.63;1.57;;;19.50;99.90;;;;;;4975704;28;20192;-68
2023/01/20 09:28:37;;;;;;;4.93;1.43;;;19.50;99.90;;;;;;4975676;28;20177;-69
2023/01/20 09:31:07;;;;;;;3.93;1.20;;;19.40;99.90;;;;;;4975875;28;20225;-69
2023/01/20 09:33:37;;;;;;;3.67;0.93;;;19.30;99.90;;;;;;4975578;28;20181;-75
2023/01/20 09:36:08;;;;;;;11.03;2.73;;;19.40;99.90;;;;;;4975663;28;20180;-70
2023/01/20 09:44:35;;;;;;;5.87;1.40;;;19.30;99.90;;;;;;4975761;28;20186;-69
2023/01/20 09:47:20;;;;;;;6.53;1.47;;;19.40;99.90;;;;;;4956879;28;20181;-70
2023/01/20 09:53:57;;;;;;;5.77;1.63;;;19.40;99.90;;;;;;4962465;28;20223;-73
2023/01/20 09:56:27;;;;;;;5.63;1.60;;;19.40;99.90;;;;;;4915834;29;20264;-73
2023/01/20 09:59:18;;;;;;;6.80;2.00;;;19.40;99.90;;;;;;4915637;29;20623;-74
2023/01/20 10:01:52;;;;;;;7.10;2.00;;;19.40;99.90;;;;;;4957205;28;20192;-69
2023/01/20 10:04:41;;;;;;;7.70;2.20;;;19.40;99.90;;;;;;4975118;28;20719;-73
2023/01/20 10:07:42;;;;;;;10.07;2.93;;;19.40;99.90;;;;;;5090835;27;20549;-68
2023/01/20 10:10:41;;;;;;;6.30;1.57;;;19.30;99.90;;;;;;5090656;28;20254;-69
2023/01/20 10:13:31;;;;;;;3.53;1.53;;;19.30;99.90;;;;;;5088496;28;20197;-68
2023/01/20 10:16:03;;;;;;;6.67;1.80;;;19.30;99.90;;;;;;5090373;28;20166;-70
2023/01/20 10:18:46;;;;;;;5.53;1.90;;;19.40;99.90;;;;;;5090555;28;20167;-69
2023/01/20 10:21:50;;;;;;;5.53;1.63;;;19.40;99.90;;;;;;5090646;28;20205;-73
2023/01/20 10:24:24;;;;;;;6.63;1.50;;;19.30;99.90;;;;;;5089855;28;20262;-68
2023/01/20 10:26:57;;;;;;;8.30;1.63;;;19.40;99.90;;;;;;5089829;28;20216;-69
2023/01/20 10:29:47;;;;;;;9.67;1.43;;;19.40;99.90;;;;;;5089732;28;20180;-71
2023/01/20 10:32:35;;;;;;;9.47;2.10;;;19.40;99.90;;;;;;5089921;28;20215;-73
2023/01/20 10:35:16;;;;;;;8.17;1.73;;;19.40;99.90;;;;;;5089472;28;20674;-68
2023/01/20 10:37:44;;;;;;;7.47;1.57;;;19.40;99.90;;;;;;5088346;28;20185;-73
2023/01/20 10:40:32;;;;;;;4.43;1.43;;;19.40;99.90;;;;;;5089478;28;20180;-69
2023/01/20 10:43:08;;;;;;;6.20;1.90;;;19.30;99.90;;;;;;5089733;28;20180;-74
2023/01/20 10:46:06;;;;;;;5.97;1.83;;;19.30;99.90;;;;;;5089702;28;20208;-68
2023/01/20 10:49:12;;;;;;;4.40;1.30;;;19.30;99.90;;;;;;5089496;28;20668;-71
2023/01/20 10:52:05;;;;;;;10.13;1.97;;;19.30;99.90;;;;;;5046720;28;20226;-69
2023/01/20 10:54:53;;;;;;;6.67;1.60;;;19.30;99.90;;;;;;5046987;28;20640;-68
2023/01/20 10:57:21;;;;;;;6.90;1.37;;;19.30;99.90;;;;;;5080690;28;20189;-72
2023/01/20 10:59:56;;;;;;;9.47;1.53;;;19.30;99.90;;;;;;5089135;28;20181;-68
2023/01/20 11:02:26;;;;;;;6.20;1.60;;;19.30;99.90;;;;;;5089330;28;20171;-69
2023/01/20 11:04:57;;;;;;;5.37;1.57;;;19.30;99.90;;;;;;5088796;28;20221;-69
2023/01/20 11:07:26;;;;;;;6.77;1.37;;;19.30;99.90;;;;;;5089152;28;20270;-69
2023/01/20 11:09:54;;;;;;;3.43;1.33;;;19.30;99.90;;;;;;5089029;28;20168;-69
2023/01/20 11:12:34;;;;;;;8.33;1.77;;;19.20;99.90;;;;;;5089093;28;20181;-69
2023/01/20 11:15:02;;;;;;;3.70;1.50;;;19.20;99.90;;;;;;5087640;28;20633;-69
2023/01/20 11:17:29;;;;;;;7.43;2.47;;;19.10;99.90;;;;;;5081732;28;20170;-69
2023/01/20 11:20:04;;;;;;;7.47;1.80;;;19.10;99.90;;;;;;5075029;28;20229;-68
2023/01/20 11:22:37;;;;;;;8.67;2.10;;;19.00;99.90;;;;;;5075433;28;20199;-70
2023/01/20 11:25:05;;;;;;;8.47;2.20;;;19.00;99.90;;;;;;5075134;28;20179;-68
2023/01/20 11:27:41;;;;;;;5.73;1.83;;;18.90;99.90;;;;;;5075143;28;20227;-67
2023/01/20 11:30:27;;;;;;;9.43;2.00;;;18.80;99.90;;;;;;5075271;28;20260;-70
2023/01/20 11:33:16;;;;;;;4.50;1.80;;;18.70;99.90;;;;;;5075127;28;20657;-69
2023/01/20 11:36:05;;;;;;;7.57;2.20;;;18.70;99.90;;;;;;5075288;28;20602;-72
2023/01/20 11:38:44;;;;;;;6.50;1.83;;;18.60;99.90;;;;;;5073682;28;20268;-73
2023/01/20 11:41:22;;;;;;;5.23;2.07;;;18.70;99.90;;;;;;5074979;28;20176;-71
2023/01/20 11:43:52;;;;;;;5.37;1.80;;;18.70;99.90;;;;;;5074927;28;20177;-69
2023/01/20 11:46:23;;;;;;;8.00;2.60;;;18.70;99.90;;;;;;5073033;28;20203;-69
2023/01/20 11:49:05;;;;;;;6.97;2.20;;;18.70;99.90;;;;;;5074506;28;20633;-73
2023/01/20 11:51:33;;;;;;;10.67;2.73;;;18.80;99.90;;;;;;5074966;28;20187;-70
2023/01/20 11:54:14;;;;;;;8.97;2.57;;;18.80;99.90;;;;;;5074456;28;20179;-68
2023/01/20 11:56:44;;;;;;;10.17;2.03;;;18.80;99.90;;;;;;5073224;28;20193;-73
2023/01/20 11:59:33;;;;;;;7.50;2.33;;;18.80;99.90;;;;;;5074814;28;20184;-69
2023/01/20 12:02:10;;;;;;;8.47;2.20;;;18.90;99.90;;;;;;5072693;28;20179;-69
2023/01/20 12:05:04;;;;;;;11.67;1.93;;;18.80;99.90;;;;;;5074032;28;20182;-69
2023/01/20 12:07:44;;;;;;;3.77;1.53;;;18.80;99.90;;;;;;5074117;28;20287;-72
2023/01/20 12:10:34;;;;;;;8.13;2.40;;;18.90;99.90;;;;;;5073602;28;20184;-69
2023/01/20 12:13:19;;;;;;;11.97;2.50;;;18.80;99.90;;;;;;5073728;28;20229;-74
2023/01/20 12:15:54;;;;;;;7.67;2.67;;;18.90;99.90;;;;;;5074239;28;20598;-69
2023/01/20 12:18:46;;;;;;;5.93;2.47;;;19.00;99.90;;;;;;5074148;28;20177;-72
2023/01/20 12:21:17;;;;;;;5.13;2.00;;;19.00;99.90;;;;;;5073950;28;20179;-69
2023/01/20 12:23:47;;;;;;;10.50;2.10;;;19.00;99.90;;;;;;5073780;28;20190;-69
2023/01/20 12:26:17;;;;;;;10.90;2.53;;;19.00;99.90;;;;;;5073251;28;20698;-69
2023/01/20 12:29:03;;;;;;;12.63;2.40;;;19.00;99.90;;;;;;5072222;28;20691;-74
2023/01/20 12:31:31;;;;;;;8.23;2.60;;;19.00;99.90;;;;;;5066163;28;20182;-72
2023/01/20 12:34:14;;;;;;;6.67;2.63;;;19.00;99.90;;;;;;5073843;28;20211;-72
2023/01/20 12:36:58;;;;;;;7.97;2.87;;;19.00;99.90;;;;;;5070158;28;20184;-69
2023/01/20 12:39:49;;;;;;;5.30;2.30;;;18.90;99.90;;;;;;5053605;28;20330;-69
2023/01/20 12:42:57;;;;;;;8.40;1.97;;;18.90;99.90;;;;;;5054242;28;20187;-70
2023/01/20 12:45:59;;;;;;;8.30;2.00;;;18.90;99.90;;;;;;5034791;28;20687;-69
2023/01/20 12:48:38;;;;;;;11.90;1.70;;;18.90;99.90;;;;;;5073363;28;20179;-69
2023/01/20 12:51:24;;;;;;;7.93;1.50;;;18.90;99.90;;;;;;5072244;28;20175;-69
2023/01/20 12:54:13;;;;;;;6.77;1.83;;;19.00;99.90;;;;;;5071612;28;20599;-69
2023/01/20 12:57:11;;;;;;;8.13;1.67;;;19.00;99.90;;;;;;5072832;28;20202;-73
2023/01/20 12:59:57;;;;;;;6.87;1.30;;;19.00;99.90;;;;;;5073308;28;20172;-69
2023/01/20 13:02:42;;;;;;;10.40;1.40;;;19.00;99.90;;;;;;5073232;28;20176;-69
2023/01/20 13:05:22;;;;;;;9.03;1.60;;;19.00;99.90;;;;;;5071986;28;20203;-69
2023/01/20 13:08:10;;;;;;;7.20;1.50;;;18.90;99.90;;;;;;5073203;28;20182;-69
2023/01/20 13:11:05;;;;;;;3.43;1.20;;;18.90;99.90;;;;;;5073630;28;20186;-70
2023/01/20 13:13:40;;;;;;;5.10;1.20;;;18.90;99.90;;;;;;5071268;28;20176;-72
2023/01/20 13:16:13;;;;;;;7.90;1.70;;;18.90;99.90;;;;;;5071427;28;20538;-68
2023/01/20 13:19:02;;;;;;;9.90;1.60;;;19.00;99.90;;;;;;5072548;28;20645;-70
2023/01/20 13:21:34;;;;;;;10.20;1.77;;;18.90;99.90;;;;;;5072586;28;20186;-68
2023/01/20 13:24:05;;;;;;;11.57;1.90;;;18.90;99.90;;;;;;5072918;28;20645;-69
2023/01/20 13:26:34;;;;;;;4.47;1.10;;;18.90;99.90;;;;;;5071952;28;20323;-73